Sable Island, Nova Scotia

10:50 PM ADT on March 25, 2017 (GMT -0300)
Sable Island | | Change Station

Elev 13 ft 43.93 °N, 60.02 °W | Updated 50 minutes ago

Clear
Clear
34 °F
Feels Like 21 °F
N
24
Wind Variable Wind from NNW
Gusts 31 mph

Today
High -- | Low -- °F
--% Chance of Precip.
Yesterday
High -- | Low -- °F
Precip. -- in
Pressure 30.14 in
Visibility 9.0 miles
Clouds Few 20000 ft
Windchill 21 °F
Dew Point 27 °F
Humidity 75%
Rainfall 0.00 in
Snow Depth Not available.
6:53 AM 7:18 PM
Waning Crescent, 5% visible
METAR CWSA 260100Z AUTO 34021G27KT 9SM FEW200 01/M03 A3014 RMK SLP207
Pressure 30.14 in
Visibility 9.0 miles
Clouds Few 20000 ft
Windchill 21 °F
Dew Point 27 °F
Humidity 75%
Rainfall 0.00 in
Snow Depth Not available.
6:53 AM 7:18 PM
Waning Crescent, 5% visible
METAR CWSA 260100Z AUTO 34021G27KT 9SM FEW200 01/M03 A3014 RMK SLP207

Get Severe Weather Alerts

Thanks for signing up!

Be on the lookout for a verification email in your inbox.

You'll start receiving the daily forecast at 8 AM.

×

10-Day Weather Forecast

Almanac

Astronomy

Mar. 25, 2017 Rise Set
Actual Time
Civil Twilight
Nautical Twilight
Astronomical Twilight
Moon
Length of Visible Light
Length of Day
Tomorrow will be .
, % of the Moon is Illuminated

Today's Extremes

Country Highs Country Lows

Community

WunderPhotos

Upload Photos

1,962,540 photos uploaded!

WunderBlog® & News

Nearby

Air Quality

  Air Quality AQ Index Pollutant
Not available.

Snow Depth

Station Depth Elevation

Earthquake Activity

City Distance Mag. Time & Date
Minimum magnitude displayed is 2.5.

Earthquake Activity

City Distance Mag. Time & Date
Minimum magnitude displayed is 2.5.

Coastal Water Temperatures

Place Temperature

Stations

Nearby Weather Stations

Station Location Temp. Windchill Dew Point Humidity Wind Precip. Elev Updated Type
                   

Watches & Warnings

There are currently no watches in effect.